sensor_id;sensor_type;location;lat;lon;timestamp;pressure;altitude;pressure_sealevel;temperature;humidity
30724;BME280;17473;52.286;20.930;2023-04-25T00:02:14;99001.63;;;13.57;78.00
30724;BME280;17473;52.286;20.930;2023-04-25T00:04:41;99002.47;;;13.48;78.29
30724;BME280;17473;52.286;20.930;2023-04-25T00:07:09;98994.50;;;13.59;78.31
30724;BME280;17473;52.286;20.930;2023-04-25T00:09:37;98996.28;;;13.69;77.60
30724;BME280;17473;52.286;20.930;2023-04-25T00:12:04;99008.69;;;13.59;78.30
30724;BME280;17473;52.286;20.930;2023-04-25T00:14:31;99001.59;;;13.46;79.31
30724;BME280;17473;52.286;20.930;2023-04-25T00:17:01;98999.81;;;13.45;79.41
30724;BME280;17473;52.286;20.930;2023-04-25T00:19:29;98991.88;;;13.42;79.74
30724;BME280;17473;52.286;20.930;2023-04-25T00:21:56;98999.81;;;13.40;80.14
30724;BME280;17473;52.286;20.930;2023-04-25T00:24:23;99001.59;;;13.49;79.71
30724;BME280;17473;52.286;20.930;2023-04-25T00:26:50;98988.34;;;13.54;79.50
30724;BME280;17473;52.286;20.930;2023-04-25T00:29:17;99006.84;;;13.32;80.74
30724;BME280;17473;52.286;20.930;2023-04-25T00:31:44;98999.81;;;13.48;80.08
30724;BME280;17473;52.286;20.930;2023-04-25T00:34:11;98992.72;;;13.36;80.54
30724;BME280;17473;52.286;20.930;2023-04-25T00:36:38;98994.50;;;13.34;80.95
30724;BME280;17473;52.286;20.930;2023-04-25T00:39:05;98998.03;;;13.22;81.73
30724;BME280;17473;52.286;20.930;2023-04-25T00:41:33;99000.66;;;13.14;82.80
30724;BME280;17473;52.286;20.930;2023-04-25T00:44:01;99001.56;;;13.26;82.30
30724;BME280;17473;52.286;20.930;2023-04-25T00:46:29;98996.22;;;13.12;83.26
30724;BME280;17473;52.286;20.930;2023-04-25T00:48:56;99004.19;;;13.21;82.58
30724;BME280;17473;52.286;20.930;2023-04-25T00:51:26;98993.59;;;13.26;82.92
30724;BME280;17473;52.286;20.930;2023-04-25T00:53:53;98994.50;;;13.28;82.51
30724;BME280;17473;52.286;20.930;2023-04-25T00:56:21;99001.56;;;13.24;83.65
30724;BME280;17473;52.286;20.930;2023-04-25T00:58:48;99001.56;;;13.29;83.37
30724;BME280;17473;52.286;20.930;2023-04-25T01:01:16;99005.09;;;13.19;84.30
30724;BME280;17473;52.286;20.930;2023-04-25T01:03:46;99005.97;;;13.22;84.39
30724;BME280;17473;52.286;20.930;2023-04-25T01:06:13;98998.00;;;13.11;85.66
30724;BME280;17473;52.286;20.930;2023-04-25T01:08:41;99003.28;;;13.10;85.68
30724;BME280;17473;52.286;20.930;2023-04-25T01:11:08;99004.16;;;12.95;86.99
30724;BME280;17473;52.286;20.930;2023-04-25T01:13:35;99009.47;;;13.03;86.67
30724;BME280;17473;52.286;20.930;2023-04-25T01:16:03;99005.94;;;12.97;87.37
30724;BME280;17473;52.286;20.930;2023-04-25T01:18:30;99012.13;;;12.96;88.24
30724;BME280;17473;52.286;20.930;2023-04-25T01:21:10;98997.13;;;13.09;87.49
30724;BME280;17473;52.286;20.930;2023-04-25T01:23:41;99004.19;;;13.10;88.62
30724;BME280;17473;52.286;20.930;2023-04-25T01:26:10;98996.22;;;12.98;88.88
30724;BME280;17473;52.286;20.930;2023-04-25T01:28:40;99007.63;;;12.74;91.02
30724;BME280;17473;52.286;20.930;2023-04-25T01:31:11;98999.72;;;12.81;91.27
30724;BME280;17473;52.286;20.930;2023-04-25T01:33:39;98996.16;;;12.78;91.61
30724;BME280;17473;52.286;20.930;2023-04-25T01:36:06;99000.56;;;12.70;92.56
30724;BME280;17473;52.286;20.930;2023-04-25T01:38:33;98994.44;;;12.84;91.69
30724;BME280;17473;52.286;20.930;2023-04-25T01:41:00;98996.16;;;12.78;92.37
30724;BME280;17473;52.286;20.930;2023-04-25T01:43:27;98997.06;;;12.88;92.06
30724;BME280;17473;52.286;20.930;2023-04-25T01:45:55;98998.88;;;12.90;91.84
30724;BME280;17473;52.286;20.930;2023-04-25T01:48:23;98998.84;;;12.87;91.88
30724;BME280;17473;52.286;20.930;2023-04-25T01:50:50;98999.72;;;12.84;92.59
30724;BME280;17473;52.286;20.930;2023-04-25T01:53:18;98997.94;;;12.80;92.64
30724;BME280;17473;52.286;20.930;2023-04-25T01:55:45;98991.75;;;12.75;93.43
30724;BME280;17473;52.286;20.930;2023-04-25T01:58:11;98992.66;;;12.79;93.11
30724;BME280;17473;52.286;20.930;2023-04-25T02:00:40;98985.56;;;12.73;94.06
30724;BME280;17473;52.286;20.930;2023-04-25T02:03:07;98994.38;;;12.71;94.67
30724;BME280;17473;52.286;20.930;2023-04-25T02:05:37;98998.81;;;12.84;93.60
30724;BME280;17473;52.286;20.930;2023-04-25T02:08:06;98987.34;;;12.74;93.94
30724;BME280;17473;52.286;20.930;2023-04-25T02:10:35;99001.44;;;12.68;94.91
30724;BME280;17473;52.286;20.930;2023-04-25T02:13:02;99000.59;;;12.77;94.92
30724;BME280;17473;52.286;20.930;2023-04-25T02:15:30;98997.94;;;12.80;94.87
30724;BME280;17473;52.286;20.930;2023-04-25T02:17:57;98993.47;;;12.61;95.57
30724;BME280;17473;52.286;20.930;2023-04-25T02:20:29;98998.81;;;12.73;95.54
30724;BME280;17473;52.286;20.930;2023-04-25T02:22:56;98989.13;;;12.84;94.51
30724;BME280;17473;52.286;20.930;2023-04-25T02:25:24;98993.53;;;12.81;94.86
30724;BME280;17473;52.286;20.930;2023-04-25T02:27:51;98989.13;;;12.80;95.35
30724;BME280;17473;52.286;20.930;2023-04-25T02:30:18;98982.97;;;12.90;94.31
30724;BME280;17473;52.286;20.930;2023-04-25T02:32:46;98979.44;;;13.00;93.64
30724;BME280;17473;52.286;20.930;2023-04-25T02:35:13;98979.41;;;12.87;94.19
30724;BME280;17473;52.286;20.930;2023-04-25T02:37:42;98983.81;;;12.83;94.70
30724;BME280;17473;52.286;20.930;2023-04-25T02:40:09;98979.41;;;12.87;94.41
30724;BME280;17473;52.286;20.930;2023-04-25T02:42:37;98983.78;;;12.78;94.71
30724;BME280;17473;52.286;20.930;2023-04-25T02:45:04;98977.56;;;12.61;96.22
30724;BME280;17473;52.286;20.930;2023-04-25T02:47:32;98980.25;;;12.64;95.87
30724;BME280;17473;52.286;20.930;2023-04-25T02:49:59;98979.34;;;12.62;96.12
30724;BME280;17473;52.286;20.930;2023-04-25T02:52:26;98984.59;;;12.52;96.24
30724;BME280;17473;52.286;20.930;2023-04-25T02:54:53;98984.59;;;12.48;96.69
30724;BME280;17473;52.286;20.930;2023-04-25T02:57:20;98984.56;;;12.37;97.35
30724;BME280;17473;52.286;20.930;2023-04-25T02:59:47;98979.25;;;12.35;97.61
30724;BME280;17473;52.286;20.930;2023-04-25T03:02:14;98986.34;;;12.41;97.51
30724;BME280;17473;52.286;20.930;2023-04-25T03:04:41;98974.03;;;12.51;96.61
30724;BME280;17473;52.286;20.930;2023-04-25T03:07:09;98976.66;;;12.49;96.37
30724;BME280;17473;52.286;20.930;2023-04-25T03:09:36;98975.78;;;12.50;96.76
30724;BME280;17473;52.286;20.930;2023-04-25T03:12:04;98973.09;;;12.43;97.13
30724;BME280;17473;52.286;20.930;2023-04-25T03:14:31;98969.56;;;12.39;97.49
30724;BME280;17473;52.286;20.930;2023-04-25T03:16:58;98971.31;;;12.37;97.96
30724;BME280;17473;52.286;20.930;2023-04-25T03:19:25;98969.56;;;12.39;97.59
30724;BME280;17473;52.286;20.930;2023-04-25T03:21:52;98970.44;;;12.38;97.46
30724;BME280;17473;52.286;20.930;2023-04-25T03:24:20;98975.72;;;12.40;97.85
30724;BME280;17473;52.286;20.930;2023-04-25T03:26:47;98972.22;;;12.45;97.22
30724;BME280;17473;52.286;20.930;2023-04-25T03:29:14;98973.97;;;12.42;97.00
30724;BME280;17473;52.286;20.930;2023-04-25T03:31:41;98975.75;;;12.44;96.60
30724;BME280;17473;52.286;20.930;2023-04-25T03:34:08;98986.31;;;12.38;97.76
30724;BME280;17473;52.286;20.930;2023-04-25T03:36:35;98986.31;;;12.38;97.66
30724;BME280;17473;52.286;20.930;2023-04-25T03:39:02;98994.31;;;12.52;97.47
30724;BME280;17473;52.286;20.930;2023-04-25T03:41:29;98993.34;;;12.33;97.87
30724;BME280;17473;52.286;20.930;2023-04-25T03:43:56;98995.16;;;12.35;97.86
30724;BME280;17473;52.286;20.930;2023-04-25T03:46:23;98995.16;;;12.40;97.92
30724;BME280;17473;52.286;20.930;2023-04-25T03:48:50;98993.34;;;12.30;98.43
30724;BME280;17473;52.286;20.930;2023-04-25T03:51:17;98996.06;;;12.45;97.99
30724;BME280;17473;52.286;20.930;2023-04-25T03:53:44;98998.75;;;12.58;96.56
30724;BME280;17473;52.286;20.930;2023-04-25T03:56:11;98997.88;;;12.59;96.33
30724;BME280;17473;52.286;20.930;2023-04-25T03:58:38;99008.53;;;12.74;96.03
30724;BME280;17473;52.286;20.930;2023-04-25T04:01:05;99003.22;;;12.70;95.82
30724;BME280;17473;52.286;20.930;2023-04-25T04:03:35;99010.25;;;12.69;96.24
30724;BME280;17473;52.286;20.930;2023-04-25T04:06:04;99012.91;;;12.72;95.22
30724;BME280;17473;52.286;20.930;2023-04-25T04:08:33;99004.03;;;12.55;96.87
30724;BME280;17473;52.286;20.930;2023-04-25T04:11:00;99010.16;;;12.43;97.21
30724;BME280;17473;52.286;20.930;2023-04-25T04:13:28;99009.34;;;12.65;96.62
30724;BME280;17473;52.286;20.930;2023-04-25T04:15:55;99009.38;;;12.62;96.26
30724;BME280;17473;52.286;20.930;2023-04-25T04:18:23;99023.50;;;12.67;96.09
30724;BME280;17473;52.286;20.930;2023-04-25T04:20:50;99011.19;;;12.73;95.96
30724;BME280;17473;52.286;20.930;2023-04-25T04:23:17;99021.75;;;12.70;96.41
30724;BME280;17473;52.286;20.930;2023-04-25T04:25:44;99023.56;;;12.86;95.89
30724;BME280;17473;52.286;20.930;2023-04-25T04:28:11;99025.31;;;12.84;96.02
30724;BME280;17473;52.286;20.930;2023-04-25T04:30:40;99025.31;;;12.84;96.01
30724;BME280;17473;52.286;20.930;2023-04-25T04:33:08;99030.59;;;12.78;96.75
30724;BME280;17473;52.286;20.930;2023-04-25T04:35:35;99025.31;;;12.81;96.14
30724;BME280;17473;52.286;20.930;2023-04-25T04:38:03;99026.13;;;12.61;98.23
30724;BME280;17473;52.286;20.930;2023-04-25T04:40:30;99030.59;;;12.72;97.86
30724;BME280;17473;52.286;20.930;2023-04-25T04:42:59;99023.53;;;12.71;98.45
30724;BME280;17473;52.286;20.930;2023-04-25T04:45:26;99021.81;;;12.93;98.26
30724;BME280;17473;52.286;20.930;2023-04-25T04:47:54;99013.00;;;13.02;97.46
30724;BME280;17473;52.286;20.930;2023-04-25T04:50:22;99020.06;;;12.90;97.66
30724;BME280;17473;52.286;20.930;2023-04-25T04:52:49;99022.69;;;12.92;97.40
30724;BME280;17473;52.286;20.930;2023-04-25T04:55:16;99027.09;;;12.83;98.64
30724;BME280;17473;52.286;20.930;2023-04-25T04:57:43;99024.41;;;12.73;99.54
30724;BME280;17473;52.286;20.930;2023-04-25T05:00:11;99021.78;;;12.73;99.54
30724;BME280;17473;52.286;20.930;2023-04-25T05:02:39;99028.88;;;12.84;98.50
30724;BME280;17473;52.286;20.930;2023-04-25T05:05:07;99027.97;;;12.82;99.17
30724;BME280;17473;52.286;20.930;2023-04-25T05:07:34;99031.50;;;12.92;98.66
30724;BME280;17473;52.286;20.930;2023-04-25T05:10:02;99030.63;;;12.89;98.73
30724;BME280;17473;52.286;20.930;2023-04-25T05:12:30;99037.69;;;12.77;99.48
30724;BME280;17473;52.286;20.930;2023-04-25T05:14:57;99030.63;;;12.89;98.91
30724;BME280;17473;52.286;20.930;2023-04-25T05:17:24;99034.09;;;12.67;99.76
30724;BME280;17473;52.286;20.930;2023-04-25T05:19:51;99035.03;;;12.77;99.71
30724;BME280;17473;52.286;20.930;2023-04-25T05:22:18;99028.84;;;12.80;99.48
30724;BME280;17473;52.286;20.930;2023-04-25T05:24:45;99033.25;;;12.84;99.10
30724;BME280;17473;52.286;20.930;2023-04-25T05:27:12;99037.66;;;12.80;99.14
30724;BME280;17473;52.286;20.930;2023-04-25T05:29:39;99042.94;;;12.76;98.89
30724;BME280;17473;52.286;20.930;2023-04-25T05:32:06;99031.56;;;13.03;96.94
30724;BME280;17473;52.286;20.930;2023-04-25T05:34:34;99035.03;;;12.90;97.31
30724;BME280;17473;52.286;20.930;2023-04-25T05:37:01;99046.59;;;13.18;96.02
30724;BME280;17473;52.286;20.930;2023-04-25T05:39:29;99052.69;;;12.84;97.81
30724;BME280;17473;52.286;20.930;2023-04-25T05:41:56;99058.00;;;12.91;96.90
30724;BME280;17473;52.286;20.930;2023-04-25T05:44:23;99057.97;;;12.77;98.45
30724;BME280;17473;52.286;20.930;2023-04-25T05:46:50;99056.19;;;12.74;99.46
30724;BME280;17473;52.286;20.930;2023-04-25T05:49:17;99054.41;;;12.75;99.30
30724;BME280;17473;52.286;20.930;2023-04-25T05:51:45;99057.06;;;12.75;99.27
30724;BME280;17473;52.286;20.930;2023-04-25T05:54:12;99049.19;;;12.92;98.71
30724;BME280;17473;52.286;20.930;2023-04-25T05:56:39;99051.88;;;13.01;98.57
30724;BME280;17473;52.286;20.930;2023-04-25T05:59:06;99051.88;;;13.12;97.46
30724;BME280;17473;52.286;20.930;2023-04-25T06:01:33;99060.69;;;13.02;98.27
30724;BME280;17473;52.286;20.930;2023-04-25T06:04:00;99054.50;;;13.03;97.25
30724;BME280;17473;52.286;20.930;2023-04-25T06:06:29;99064.25;;;13.07;97.41
30724;BME280;17473;52.286;20.930;2023-04-25T06:08:56;99062.47;;;12.99;97.24
30724;BME280;17473;52.286;20.930;2023-04-25T06:11:23;99066.88;;;13.10;97.08
30724;BME280;17473;52.286;20.930;2023-04-25T06:13:50;99065.13;;;13.07;96.44
30724;BME280;17473;52.286;20.930;2023-04-25T06:16:18;99066.00;;;13.06;94.85
30724;BME280;17473;52.286;20.930;2023-04-25T06:18:45;99064.19;;;12.93;96.82
30724;BME280;17473;52.286;20.930;2023-04-25T06:21:12;99072.16;;;12.96;96.87
30724;BME280;17473;52.286;20.930;2023-04-25T06:23:39;99071.31;;;13.09;96.19
30724;BME280;17473;52.286;20.930;2023-04-25T06:26:07;99076.63;;;13.08;95.42
30724;BME280;17473;52.286;20.930;2023-04-25T06:28:34;99078.38;;;12.99;94.40
30724;BME280;17473;52.286;20.930;2023-04-25T06:31:01;99084.47;;;12.83;94.88
30724;BME280;17473;52.286;20.930;2023-04-25T06:33:28;99097.69;;;12.78;94.88
30724;BME280;17473;52.286;20.930;2023-04-25T06:35:55;99097.69;;;12.78;93.98
30724;BME280;17473;52.286;20.930;2023-04-25T06:38:22;99110.94;;;12.80;93.67
30724;BME280;17473;52.286;20.930;2023-04-25T06:40:49;99115.31;;;12.75;93.39
30724;BME280;17473;52.286;20.930;2023-04-25T06:43:16;99117.84;;;12.48;94.63
30724;BME280;17473;52.286;20.930;2023-04-25T06:45:43;99114.31;;;12.52;95.46
30724;BME280;17473;52.286;20.930;2023-04-25T06:48:13;99117.00;;;12.54;96.40
30724;BME280;17473;52.286;20.930;2023-04-25T06:50:40;99126.63;;;12.44;97.19
30724;BME280;17473;52.286;20.930;2023-04-25T06:53:07;99116.16;;;12.61;96.51
30724;BME280;17473;52.286;20.930;2023-04-25T06:55:35;99104.63;;;12.51;95.96
30724;BME280;17473;52.286;20.930;2023-04-25T06:58:02;99116.22;;;12.78;94.80
30724;BME280;17473;52.286;20.930;2023-04-25T07:00:30;99109.00;;;12.46;95.93
30724;BME280;17473;52.286;20.930;2023-04-25T07:02:57;99110.78;;;12.46;95.68
30724;BME280;17473;52.286;20.930;2023-04-25T07:05:25;99110.75;;;12.44;95.02
30724;BME280;17473;52.286;20.930;2023-04-25T07:07:52;99114.31;;;12.46;94.54
30724;BME280;17473;52.286;20.930;2023-04-25T07:10:19;99113.47;;;12.60;94.04
30724;BME280;17473;52.286;20.930;2023-04-25T07:12:48;99113.69;;;12.98;92.50
30724;BME280;17473;52.286;20.930;2023-04-25T07:15:15;99102.25;;;13.27;91.18
30724;BME280;17473;52.286;20.930;2023-04-25T07:17:42;99101.50;;;14.06;87.26
30724;BME280;17473;52.286;20.930;2023-04-25T07:20:20;99101.38;;;14.79;84.59
30724;BME280;17473;52.286;20.930;2023-04-25T07:22:47;99107.19;;;15.55;80.29
30724;BME280;17473;52.286;20.930;2023-04-25T07:25:14;99097.22;;;15.80;78.95
30724;BME280;17473;52.286;20.930;2023-04-25T07:27:41;99107.84;;;15.88;77.33
30724;BME280;17473;52.286;20.930;2023-04-25T07:30:09;99105.72;;;16.29;75.42
30724;BME280;17473;52.286;20.930;2023-04-25T07:32:36;99101.59;;;15.94;75.37
30724;BME280;17473;52.286;20.930;2023-04-25T07:35:03;99103.44;;;15.79;76.77
30724;BME280;17473;52.286;20.930;2023-04-25T07:37:30;99108.66;;;16.00;76.88
30724;BME280;17473;52.286;20.930;2023-04-25T07:39:57;99104.72;;;16.41;73.84
30724;BME280;17473;52.286;20.930;2023-04-25T07:42:24;99114.06;;;17.49;70.34
30724;BME280;17473;52.286;20.930;2023-04-25T07:44:51;99109.06;;;18.39;66.64
30724;BME280;17473;52.286;20.930;2023-04-25T07:47:18;99116.28;;;18.82;64.57
30724;BME280;17473;52.286;20.930;2023-04-25T07:49:46;99115.78;;;19.49;59.88
30724;BME280;17473;52.286;20.930;2023-04-25T07:52:13;99119.88;;;18.80;63.28
30724;BME280;17473;52.286;20.930;2023-04-25T07:54:40;99119.88;;;18.33;63.75
30724;BME280;17473;52.286;20.930;2023-04-25T07:57:08;99118.69;;;17.36;66.79
30724;BME280;17473;52.286;20.930;2023-04-25T07:59:35;99125.31;;;17.08;69.17
30724;BME280;17473;52.286;20.930;2023-04-25T08:02:02;99122.25;;;16.59;69.49
30724;BME280;17473;52.286;20.930;2023-04-25T08:04:29;99120.66;;;16.44;70.41
30724;BME280;17473;52.286;20.930;2023-04-25T08:06:57;99133.50;;;15.97;72.47
30724;BME280;17473;52.286;20.930;2023-04-25T08:09:24;99130.06;;;15.81;72.46
30724;BME280;17473;52.286;20.930;2023-04-25T08:11:51;99124.59;;;16.04;71.83
30724;BME280;17473;52.286;20.930;2023-04-25T08:14:18;99134.47;;;15.85;71.54
30724;BME280;17473;52.286;20.930;2023-04-25T08:16:45;99131.06;;;15.61;72.18
30724;BME280;17473;52.286;20.930;2023-04-25T08:19:12;99132.19;;;15.26;74.29
30724;BME280;17473;52.286;20.930;2023-04-25T08:21:39;99131.28;;;15.26;74.41
30724;BME280;17473;52.286;20.930;2023-04-25T08:24:06;99133.09;;;15.17;74.10
30724;BME280;17473;52.286;20.930;2023-04-25T08:26:33;99133.22;;;14.80;76.48
30724;BME280;17473;52.286;20.930;2023-04-25T08:29:01;99134.19;;;14.70;77.08
30724;BME280;17473;52.286;20.930;2023-04-25T08:31:28;99131.50;;;14.61;77.22
30724;BME280;17473;52.286;20.930;2023-04-25T08:33:55;99136.88;;;14.25;78.35
30724;BME280;17473;52.286;20.930;2023-04-25T08:36:22;99143.94;;;14.18;77.67
30724;BME280;17473;52.286;20.930;2023-04-25T08:39:05;99145.69;;;14.21;77.72
30724;BME280;17473;52.286;20.930;2023-04-25T08:41:32;99153.69;;;14.24;77.56
30724;BME280;17473;52.286;20.930;2023-04-25T08:44:01;99150.97;;;14.53;77.28
30724;BME280;17473;52.286;20.930;2023-04-25T08:46:30;99157.19;;;14.77;74.58
30724;BME280;17473;52.286;20.930;2023-04-25T08:49:01;99154.50;;;14.57;75.08
30724;BME280;17473;52.286;20.930;2023-04-25T08:51:32;99161.63;;;14.41;76.11
30724;BME280;17473;52.286;20.930;2023-04-25T08:54:10;99160.75;;;14.67;74.46
30724;BME280;17473;52.286;20.930;2023-04-25T08:57:01;99158.94;;;14.58;74.49
30724;BME280;17473;52.286;20.930;2023-04-25T08:59:32;99166.91;;;14.49;74.24
30724;BME280;17473;52.286;20.930;2023-04-25T09:02:00;99170.50;;;14.43;73.56
30724;BME280;17473;52.286;20.930;2023-04-25T09:04:31;99181.09;;;14.40;73.65
30724;BME280;17473;52.286;20.930;2023-04-25T09:06:58;99181.09;;;14.35;73.14
30724;BME280;17473;52.286;20.930;2023-04-25T09:09:25;99188.22;;;14.12;74.57
30724;BME280;17473;52.286;20.930;2023-04-25T09:11:54;99178.41;;;13.70;76.90
30724;BME280;17473;52.286;20.930;2023-04-25T09:14:23;99192.53;;;13.57;76.70
30724;BME280;17473;52.286;20.930;2023-04-25T09:22:07;99200.28;;;13.18;79.74
30724;BME280;17473;52.286;20.930;2023-04-25T09:24:44;99192.34;;;13.15;80.03
30724;BME280;17473;52.286;20.930;2023-04-25T09:27:21;99187.19;;;13.43;79.83
30724;BME280;17473;52.286;20.930;2023-04-25T09:29:59;99192.53;;;13.65;78.84
30724;BME280;17473;52.286;20.930;2023-04-25T09:32:29;99190.75;;;13.56;78.85
30724;BME280;17473;52.286;20.930;2023-04-25T09:34:57;99191.59;;;13.47;78.93
30724;BME280;17473;52.286;20.930;2023-04-25T09:37:29;99193.38;;;13.45;78.62
30724;BME280;17473;52.286;20.930;2023-04-25T09:39:59;99193.25;;;13.17;80.57
30724;BME280;17473;52.286;20.930;2023-04-25T09:42:29;99204.72;;;13.19;80.55
30724;BME280;17473;52.286;20.930;2023-04-25T09:45:00;99197.66;;;13.18;80.67
30724;BME280;17473;52.286;20.930;2023-04-25T09:47:29;99205.63;;;13.26;81.08
30724;BME280;17473;52.286;20.930;2023-04-25T09:49:56;99208.31;;;13.37;80.65
30724;BME280;17473;52.286;20.930;2023-04-25T09:52:24;99218.13;;;13.39;80.67
30724;BME280;17473;52.286;20.930;2023-04-25T09:54:52;99209.19;;;13.29;80.91
30724;BME280;17473;52.286;20.930;2023-04-25T09:57:22;99218.91;;;13.32;82.15
30724;BME280;17473;52.286;20.930;2023-04-25T09:59:54;99227.75;;;13.29;80.91
30724;BME280;17473;52.286;20.930;2023-04-25T10:02:24;99224.19;;;13.26;81.76
30724;BME280;17473;52.286;20.930;2023-04-25T10:04:56;99226.81;;;13.17;81.94
30724;BME280;17473;52.286;20.930;2023-04-25T10:07:26;99223.22;;;13.10;81.96
30724;BME280;17473;52.286;20.930;2023-04-25T10:10:04;99230.16;;;12.88;82.45
30724;BME280;17473;52.286;20.930;2023-04-25T10:12:33;99233.72;;;12.91;82.49
30724;BME280;17473;52.286;20.930;2023-04-25T10:15:02;99222.25;;;12.89;82.74
30724;BME280;17473;52.286;20.930;2023-04-25T10:17:30;99226.72;;;12.96;82.68
30724;BME280;17473;52.286;20.930;2023-04-25T10:19:58;99223.22;;;13.04;82.87
30724;BME280;17473;52.286;20.930;2023-04-25T10:22:35;99230.19;;;12.91;83.81
30724;BME280;17473;52.286;20.930;2023-04-25T10:25:04;99233.75;;;12.94;84.14
30724;BME280;17473;52.286;20.930;2023-04-25T10:27:34;99232.94;;;13.11;83.92
30724;BME280;17473;52.286;20.930;2023-04-25T10:30:10;99226.84;;;13.20;83.38
30724;BME280;17473;52.286;20.930;2023-04-25T10:32:39;99231.31;;;13.36;82.66
30724;BME280;17473;52.286;20.930;2023-04-25T10:35:28;99235.69;;;13.28;83.12
30724;BME280;17473;52.286;20.930;2023-04-25T10:38:08;99232.13;;;13.20;83.33
30724;BME280;17473;52.286;20.930;2023-04-25T10:40:36;99233.03;;;13.23;83.08
30724;BME280;17473;52.286;20.930;2023-04-25T10:46:02;99226.78;;;13.12;83.04
30724;BME280;17473;52.286;20.930;2023-04-25T10:48:31;99229.38;;;13.01;84.43
30724;BME280;17473;52.286;20.930;2023-04-25T10:51:31;99227.56;;;12.97;84.19
30724;BME280;17473;52.286;20.930;2023-04-25T10:54:22;99233.13;;;13.40;82.14
30724;BME280;17473;52.286;20.930;2023-04-25T10:56:51;99229.41;;;13.07;83.45
30724;BME280;17473;52.286;20.930;2023-04-25T10:59:20;99223.19;;;13.00;84.70
30724;BME280;17473;52.286;20.930;2023-04-25T11:01:52;99226.09;;;13.49;81.72
30724;BME280;17473;52.286;20.930;2023-04-25T11:04:28;99231.28;;;13.33;82.02
30724;BME280;17473;52.286;20.930;2023-04-25T11:09:35;99239.13;;;13.10;84.06
30724;BME280;17473;52.286;20.930;2023-04-25T11:12:03;99234.81;;;13.32;83.58
30724;BME280;17473;52.286;20.930;2023-04-25T11:14:30;99238.44;;;13.43;82.22
30724;BME280;17473;52.286;20.930;2023-04-25T11:16:58;99234.06;;;13.50;82.09
30724;BME280;17473;52.286;20.930;2023-04-25T11:19:28;99240.31;;;13.68;81.36
30724;BME280;17473;52.286;20.930;2023-04-25T11:22:00;99231.47;;;13.70;79.65
30724;BME280;17473;52.286;20.930;2023-04-25T11:24:32;99233.19;;;13.59;78.64
30724;BME280;17473;52.286;20.930;2023-04-25T11:27:02;99240.34;;;13.75;79.09
30724;BME280;17473;52.286;20.930;2023-04-25T11:29:33;99239.44;;;13.80;77.33
30724;BME280;17473;52.286;20.930;2023-04-25T11:32:00;99239.44;;;13.78;77.76
30724;BME280;17473;52.286;20.930;2023-04-25T11:34:30;99242.94;;;13.65;77.75
30724;BME280;17473;52.286;20.930;2023-04-25T11:36:59;99234.06;;;13.56;78.50
30724;BME280;17473;52.286;20.930;2023-04-25T11:39:27;99239.38;;;13.61;78.12
30724;BME280;17473;52.286;20.930;2023-04-25T11:41:55;99227.00;;;13.52;78.53
30724;BME280;17473;52.286;20.930;2023-04-25T11:44:22;99234.13;;;13.76;78.25
30724;BME280;17473;52.286;20.930;2023-04-25T11:46:50;99227.09;;;13.99;77.35
30724;BME280;17473;52.286;20.930;2023-04-25T11:49:17;99226.19;;;13.80;77.54
30724;BME280;17473;52.286;20.930;2023-04-25T11:51:48;99229.75;;;13.89;77.50
30724;BME280;17473;52.286;20.930;2023-04-25T11:54:16;99221.78;;;13.94;75.13
30724;BME280;17473;52.286;20.930;2023-04-25T11:56:45;99238.63;;;14.07;74.79
30724;BME280;17473;52.286;20.930;2023-04-25T11:59:13;99234.13;;;13.86;75.34
30724;BME280;17473;52.286;20.930;2023-04-25T12:01:49;99230.56;;;13.68;77.39
30724;BME280;17473;52.286;20.930;2023-04-25T12:04:21;99224.44;;;13.88;76.14
30724;BME280;17473;52.286;20.930;2023-04-25T12:06:52;99229.72;;;13.78;74.10
30724;BME280;17473;52.286;20.930;2023-04-25T12:09:31;99226.19;;;13.84;73.88
30724;BME280;17473;52.286;20.930;2023-04-25T12:12:00;99227.09;;;13.80;72.55
30724;BME280;17473;52.286;20.930;2023-04-25T12:14:33;99234.16;;;13.89;72.25
30724;BME280;17473;52.286;20.930;2023-04-25T12:17:02;99225.31;;;13.95;70.79
30724;BME280;17473;52.286;20.930;2023-04-25T12:19:36;99227.91;;;13.64;71.17
30724;BME280;17473;52.286;20.930;2023-04-25T12:22:20;99220.78;;;13.47;72.73
30724;BME280;17473;52.286;20.930;2023-04-25T12:24:48;99220.81;;;13.59;72.49
30724;BME280;17473;52.286;20.930;2023-04-25T12:27:16;99227.91;;;13.62;71.71
30724;BME280;17473;52.286;20.930;2023-04-25T12:29:56;99227.88;;;13.59;71.73
30724;BME280;17473;52.286;20.930;2023-04-25T12:32:24;99224.38;;;13.74;70.76
30724;BME280;17473;52.286;20.930;2023-04-25T12:34:52;99230.56;;;13.62;71.77
30724;BME280;17473;52.286;20.930;2023-04-25T12:37:19;99226.16;;;13.73;70.93
30724;BME280;17473;52.286;20.930;2023-04-25T12:39:46;99231.44;;;13.59;69.64
30724;BME280;17473;52.286;20.930;2023-04-25T12:42:13;99231.41;;;13.49;69.96
30724;BME280;17473;52.286;20.930;2023-04-25T12:44:40;99232.28;;;13.48;70.17
30724;BME280;17473;52.286;20.930;2023-04-25T12:47:08;99232.28;;;13.51;69.86
30724;BME280;17473;52.286;20.930;2023-04-25T12:49:35;99234.16;;;13.93;68.95
30724;BME280;17473;52.286;20.930;2023-04-25T12:52:02;99228.78;;;13.58;70.29
30724;BME280;17473;52.286;20.930;2023-04-25T12:54:29;99230.56;;;13.68;70.42
30724;BME280;17473;52.286;20.930;2023-04-25T12:56:57;99235.00;;;13.71;70.74
30724;BME280;17473;52.286;20.930;2023-04-25T12:59:24;99230.59;;;13.76;70.39
30724;BME280;17473;52.286;20.930;2023-04-25T13:01:51;99237.66;;;13.66;71.20
30724;BME280;17473;52.286;20.930;2023-04-25T13:04:18;99227.00;;;13.55;72.20
30724;BME280;17473;52.286;20.930;2023-04-25T13:06:48;99224.38;;;13.74;72.17
30724;BME280;17473;52.286;20.930;2023-04-25T13:09:15;99227.06;;;13.82;73.61